sensor_id;sensor_type;location;lat;lon;timestamp;temperature;humidity
53264;DHT22;39153;52.680;6.172;2023-09-19T00:00:21;14.50;99.90
53264;DHT22;39153;52.680;6.172;2023-09-19T00:02:57;14.70;99.90
53264;DHT22;39153;52.680;6.172;2023-09-19T00:05:30;14.70;99.90
53264;DHT22;39153;52.680;6.172;2023-09-19T00:08:00;14.50;99.90
53264;DHT22;39153;52.680;6.172;2023-09-19T00:10:27;14.40;99.90
53264;DHT22;39153;52.680;6.172;2023-09-19T00:12:57;14.60;99.90
53264;DHT22;39153;52.680;6.172;2023-09-19T00:15:27;14.50;99.90
53264;DHT22;39153;52.680;6.172;2023-09-19T00:17:56;14.40;99.90
53264;DHT22;39153;52.680;6.172;2023-09-19T00:20:22;14.30;99.90
53264;DHT22;39153;52.680;6.172;2023-09-19T00:22:52;14.30;99.90
53264;DHT22;39153;52.680;6.172;2023-09-19T00:25:19;14.40;99.90
53264;DHT22;39153;52.680;6.172;2023-09-19T00:27:46;14.40;99.90
53264;DHT22;39153;52.680;6.172;2023-09-19T00:30:13;14.30;99.90
53264;DHT22;39153;52.680;6.172;2023-09-19T00:32:46;14.30;99.90
53264;DHT22;39153;52.680;6.172;2023-09-19T00:35:15;14.30;99.90
53264;DHT22;39153;52.680;6.172;2023-09-19T00:37:41;14.20;99.90
53264;DHT22;39153;52.680;6.172;2023-09-19T00:40:08;14.40;99.90
53264;DHT22;39153;52.680;6.172;2023-09-19T00:42:39;14.10;99.90
53264;DHT22;39153;52.680;6.172;2023-09-19T00:45:07;14.20;99.90
53264;DHT22;39153;52.680;6.172;2023-09-19T00:47:35;14.10;99.90
53264;DHT22;39153;52.680;6.172;2023-09-19T00:50:00;14.10;99.90
53264;DHT22;39153;52.680;6.172;2023-09-19T00:52:28;14.20;99.90
53264;DHT22;39153;52.680;6.172;2023-09-19T00:54:54;14.20;99.90
53264;DHT22;39153;52.680;6.172;2023-09-19T00:57:20;14.10;99.90
53264;DHT22;39153;52.680;6.172;2023-09-19T00:59:49;14.10;99.90
53264;DHT22;39153;52.680;6.172;2023-09-19T01:02:16;14.10;99.90
53264;DHT22;39153;52.680;6.172;2023-09-19T01:04:42;14.10;99.90
53264;DHT22;39153;52.680;6.172;2023-09-19T01:07:08;14.00;99.90
53264;DHT22;39153;52.680;6.172;2023-09-19T01:09:35;13.90;99.90
53264;DHT22;39153;52.680;6.172;2023-09-19T01:12:03;14.00;99.90
53264;DHT22;39153;52.680;6.172;2023-09-19T01:14:49;13.80;99.90
53264;DHT22;39153;52.680;6.172;2023-09-19T01:17:34;13.80;99.90
53264;DHT22;39153;52.680;6.172;2023-09-19T01:20:19;14.30;99.90
53264;DHT22;39153;52.680;6.172;2023-09-19T01:26:05;13.90;99.90
53264;DHT22;39153;52.680;6.172;2023-09-19T01:28:39;13.80;99.90
53264;DHT22;39153;52.680;6.172;2023-09-19T01:31:10;13.70;99.90
53264;DHT22;39153;52.680;6.172;2023-09-19T01:34:03;13.90;99.90
53264;DHT22;39153;52.680;6.172;2023-09-19T01:36:37;13.90;99.90
53264;DHT22;39153;52.680;6.172;2023-09-19T01:39:11;13.80;99.90
53264;DHT22;39153;52.680;6.172;2023-09-19T01:42:04;13.70;99.90
53264;DHT22;39153;52.680;6.172;2023-09-19T01:44:55;13.80;99.90
53264;DHT22;39153;52.680;6.172;2023-09-19T01:52:59;13.70;99.90
53264;DHT22;39153;52.680;6.172;2023-09-19T01:55:30;13.80;99.90
53264;DHT22;39153;52.680;6.172;2023-09-19T01:58:08;13.80;99.90
53264;DHT22;39153;52.680;6.172;2023-09-19T02:00:37;13.70;99.90
53264;DHT22;39153;52.680;6.172;2023-09-19T02:03:07;13.60;99.90
53264;DHT22;39153;52.680;6.172;2023-09-19T02:05:33;13.80;99.90
53264;DHT22;39153;52.680;6.172;2023-09-19T02:07:59;13.80;99.90
53264;DHT22;39153;52.680;6.172;2023-09-19T02:10:26;13.70;99.90
53264;DHT22;39153;52.680;6.172;2023-09-19T02:12:51;13.80;99.90
53264;DHT22;39153;52.680;6.172;2023-09-19T02:15:18;13.70;99.90
53264;DHT22;39153;52.680;6.172;2023-09-19T02:17:44;13.70;99.90
53264;DHT22;39153;52.680;6.172;2023-09-19T02:20:12;13.70;99.90
53264;DHT22;39153;52.680;6.172;2023-09-19T02:22:43;13.60;99.90
53264;DHT22;39153;52.680;6.172;2023-09-19T02:25:10;13.60;99.90
53264;DHT22;39153;52.680;6.172;2023-09-19T02:27:36;13.60;99.90
53264;DHT22;39153;52.680;6.172;2023-09-19T02:30:03;13.50;99.90
53264;DHT22;39153;52.680;6.172;2023-09-19T02:32:30;13.50;99.90
53264;DHT22;39153;52.680;6.172;2023-09-19T02:34:57;13.60;99.90
53264;DHT22;39153;52.680;6.172;2023-09-19T02:37:26;13.60;99.90
53264;DHT22;39153;52.680;6.172;2023-09-19T02:39:51;13.50;99.90
53264;DHT22;39153;52.680;6.172;2023-09-19T02:42:17;13.60;99.90
53264;DHT22;39153;52.680;6.172;2023-09-19T02:44:43;13.60;99.90
53264;DHT22;39153;52.680;6.172;2023-09-19T02:47:12;13.50;99.90
53264;DHT22;39153;52.680;6.172;2023-09-19T02:49:38;13.40;99.90
53264;DHT22;39153;52.680;6.172;2023-09-19T02:52:03;13.50;99.90
53264;DHT22;39153;52.680;6.172;2023-09-19T02:54:29;13.50;99.90
53264;DHT22;39153;52.680;6.172;2023-09-19T02:56:55;13.50;99.90
53264;DHT22;39153;52.680;6.172;2023-09-19T02:59:21;13.40;99.90
53264;DHT22;39153;52.680;6.172;2023-09-19T03:01:47;13.50;99.90
53264;DHT22;39153;52.680;6.172;2023-09-19T03:04:14;13.70;99.90
53264;DHT22;39153;52.680;6.172;2023-09-19T03:06:42;13.50;99.90
53264;DHT22;39153;52.680;6.172;2023-09-19T03:09:10;13.60;99.90
53264;DHT22;39153;52.680;6.172;2023-09-19T03:11:39;13.60;99.90
53264;DHT22;39153;52.680;6.172;2023-09-19T03:14:05;13.80;99.90
53264;DHT22;39153;52.680;6.172;2023-09-19T03:16:31;13.70;99.90
53264;DHT22;39153;52.680;6.172;2023-09-19T03:18:57;13.70;99.90
53264;DHT22;39153;52.680;6.172;2023-09-19T03:21:25;13.80;99.90
53264;DHT22;39153;52.680;6.172;2023-09-19T03:23:51;13.90;99.90
53264;DHT22;39153;52.680;6.172;2023-09-19T03:26:16;13.80;99.90
53264;DHT22;39153;52.680;6.172;2023-09-19T03:28:43;13.80;99.90
53264;DHT22;39153;52.680;6.172;2023-09-19T03:31:09;14.00;99.90
53264;DHT22;39153;52.680;6.172;2023-09-19T03:33:35;14.00;99.90
53264;DHT22;39153;52.680;6.172;2023-09-19T03:36:02;14.00;99.90
53264;DHT22;39153;52.680;6.172;2023-09-19T03:38:30;13.90;99.90
53264;DHT22;39153;52.680;6.172;2023-09-19T03:40:57;13.80;99.90
53264;DHT22;39153;52.680;6.172;2023-09-19T03:43:22;13.80;99.90
53264;DHT22;39153;52.680;6.172;2023-09-19T03:45:48;13.80;99.90
53264;DHT22;39153;52.680;6.172;2023-09-19T03:48:14;13.80;99.90
53264;DHT22;39153;52.680;6.172;2023-09-19T03:50:40;14.00;99.90
53264;DHT22;39153;52.680;6.172;2023-09-19T03:53:06;13.90;99.90
53264;DHT22;39153;52.680;6.172;2023-09-19T03:55:34;13.90;99.90
53264;DHT22;39153;52.680;6.172;2023-09-19T03:58:04;13.80;99.90
53264;DHT22;39153;52.680;6.172;2023-09-19T04:00:30;13.80;99.90
53264;DHT22;39153;52.680;6.172;2023-09-19T04:02:56;13.80;99.90
53264;DHT22;39153;52.680;6.172;2023-09-19T04:05:25;13.80;99.90
53264;DHT22;39153;52.680;6.172;2023-09-19T04:07:50;13.70;99.90
53264;DHT22;39153;52.680;6.172;2023-09-19T04:10:17;13.60;99.90
53264;DHT22;39153;52.680;6.172;2023-09-19T04:13:01;13.80;99.90
53264;DHT22;39153;52.680;6.172;2023-09-19T04:15:26;13.80;99.90
53264;DHT22;39153;52.680;6.172;2023-09-19T04:17:52;13.60;99.90
53264;DHT22;39153;52.680;6.172;2023-09-19T04:20:18;13.60;99.90
53264;DHT22;39153;52.680;6.172;2023-09-19T04:22:51;13.60;99.90
53264;DHT22;39153;52.680;6.172;2023-09-19T04:25:17;13.70;99.90
53264;DHT22;39153;52.680;6.172;2023-09-19T04:27:44;13.50;99.90
53264;DHT22;39153;52.680;6.172;2023-09-19T04:30:10;13.70;99.90
53264;DHT22;39153;52.680;6.172;2023-09-19T04:32:38;13.70;99.90
53264;DHT22;39153;52.680;6.172;2023-09-19T04:35:07;13.70;99.90
53264;DHT22;39153;52.680;6.172;2023-09-19T04:37:40;13.70;99.90
53264;DHT22;39153;52.680;6.172;2023-09-19T04:40:10;13.70;99.90
53264;DHT22;39153;52.680;6.172;2023-09-19T04:42:43;13.60;99.90
53264;DHT22;39153;52.680;6.172;2023-09-19T04:45:10;13.60;99.90
53264;DHT22;39153;52.680;6.172;2023-09-19T04:47:37;13.60;99.90
53264;DHT22;39153;52.680;6.172;2023-09-19T04:50:07;13.70;99.90
53264;DHT22;39153;52.680;6.172;2023-09-19T04:52:33;13.50;99.90
53264;DHT22;39153;52.680;6.172;2023-09-19T04:54:59;13.60;99.90
53264;DHT22;39153;52.680;6.172;2023-09-19T04:57:25;13.40;99.90
53264;DHT22;39153;52.680;6.172;2023-09-19T04:59:50;13.60;99.90
53264;DHT22;39153;52.680;6.172;2023-09-19T05:02:16;13.50;99.90
53264;DHT22;39153;52.680;6.172;2023-09-19T05:04:42;13.50;99.90
53264;DHT22;39153;52.680;6.172;2023-09-19T05:07:07;13.40;99.90
53264;DHT22;39153;52.680;6.172;2023-09-19T05:09:33;13.50;99.90
53264;DHT22;39153;52.680;6.172;2023-09-19T05:12:00;13.40;99.90
53264;DHT22;39153;52.680;6.172;2023-09-19T05:14:26;13.30;99.90
53264;DHT22;39153;52.680;6.172;2023-09-19T05:16:51;13.30;99.90
53264;DHT22;39153;52.680;6.172;2023-09-19T05:19:17;13.30;99.90
53264;DHT22;39153;52.680;6.172;2023-09-19T05:21:43;13.20;99.90
53264;DHT22;39153;52.680;6.172;2023-09-19T05:24:08;13.20;99.90
53264;DHT22;39153;52.680;6.172;2023-09-19T05:26:34;13.10;99.90
53264;DHT22;39153;52.680;6.172;2023-09-19T05:29:00;13.10;99.90
53264;DHT22;39153;52.680;6.172;2023-09-19T05:31:27;13.20;99.90
53264;DHT22;39153;52.680;6.172;2023-09-19T05:33:53;13.20;99.90
53264;DHT22;39153;52.680;6.172;2023-09-19T05:36:20;13.20;99.90
53264;DHT22;39153;52.680;6.172;2023-09-19T05:38:46;13.10;99.90
53264;DHT22;39153;52.680;6.172;2023-09-19T05:41:15;13.00;99.90
53264;DHT22;39153;52.680;6.172;2023-09-19T05:43:41;13.10;99.90
53264;DHT22;39153;52.680;6.172;2023-09-19T05:46:08;13.00;99.90
53264;DHT22;39153;52.680;6.172;2023-09-19T05:48:34;13.00;99.90
53264;DHT22;39153;52.680;6.172;2023-09-19T05:51:00;13.00;99.90
53264;DHT22;39153;52.680;6.172;2023-09-19T05:53:26;13.00;99.90
53264;DHT22;39153;52.680;6.172;2023-09-19T05:55:52;13.10;99.90
53264;DHT22;39153;52.680;6.172;2023-09-19T05:58:19;13.10;99.90
53264;DHT22;39153;52.680;6.172;2023-09-19T06:00:45;13.20;99.90
53264;DHT22;39153;52.680;6.172;2023-09-19T06:03:13;13.20;99.90
53264;DHT22;39153;52.680;6.172;2023-09-19T06:05:40;13.20;99.90
53264;DHT22;39153;52.680;6.172;2023-09-19T06:08:08;13.20;99.90
53264;DHT22;39153;52.680;6.172;2023-09-19T06:10:35;13.40;99.90
53264;DHT22;39153;52.680;6.172;2023-09-19T06:13:02;13.40;99.90
53264;DHT22;39153;52.680;6.172;2023-09-19T06:15:31;13.40;99.90
53264;DHT22;39153;52.680;6.172;2023-09-19T06:17:59;13.40;99.90
53264;DHT22;39153;52.680;6.172;2023-09-19T06:20:25;13.40;99.90
53264;DHT22;39153;52.680;6.172;2023-09-19T06:22:52;13.40;99.90
53264;DHT22;39153;52.680;6.172;2023-09-19T06:25:18;13.30;99.90
53264;DHT22;39153;52.680;6.172;2023-09-19T06:27:51;13.40;99.90
53264;DHT22;39153;52.680;6.172;2023-09-19T06:30:20;13.40;99.90
53264;DHT22;39153;52.680;6.172;2023-09-19T06:32:46;13.40;99.90
53264;DHT22;39153;52.680;6.172;2023-09-19T06:35:13;13.30;99.90
53264;DHT22;39153;52.680;6.172;2023-09-19T06:37:40;13.30;99.90
53264;DHT22;39153;52.680;6.172;2023-09-19T06:40:14;13.40;99.90
53264;DHT22;39153;52.680;6.172;2023-09-19T06:43:00;13.50;99.90
53264;DHT22;39153;52.680;6.172;2023-09-19T06:45:27;13.50;99.90
53264;DHT22;39153;52.680;6.172;2023-09-19T06:47:53;13.50;99.90
53264;DHT22;39153;52.680;6.172;2023-09-19T06:50:23;14.00;99.90
53264;DHT22;39153;52.680;6.172;2023-09-19T06:52:50;13.60;99.90
53264;DHT22;39153;52.680;6.172;2023-09-19T06:55:17;13.70;99.90
53264;DHT22;39153;52.680;6.172;2023-09-19T06:57:45;13.80;99.90
53264;DHT22;39153;52.680;6.172;2023-09-19T07:00:13;13.80;99.90
53264;DHT22;39153;52.680;6.172;2023-09-19T07:02:42;13.80;99.90
53264;DHT22;39153;52.680;6.172;2023-09-19T07:05:08;13.90;99.90
53264;DHT22;39153;52.680;6.172;2023-09-19T07:07:33;14.00;99.90
53264;DHT22;39153;52.680;6.172;2023-09-19T07:10:03;14.00;99.90
53264;DHT22;39153;52.680;6.172;2023-09-19T07:12:31;14.10;99.90
53264;DHT22;39153;52.680;6.172;2023-09-19T07:14:58;14.20;99.90
53264;DHT22;39153;52.680;6.172;2023-09-19T07:17:24;14.20;99.90
53264;DHT22;39153;52.680;6.172;2023-09-19T07:19:50;14.20;99.90
53264;DHT22;39153;52.680;6.172;2023-09-19T07:22:16;14.30;99.90
53264;DHT22;39153;52.680;6.172;2023-09-19T07:24:41;14.30;99.90
53264;DHT22;39153;52.680;6.172;2023-09-19T07:27:08;14.30;99.90
53264;DHT22;39153;52.680;6.172;2023-09-19T07:29:34;14.40;99.90
53264;DHT22;39153;52.680;6.172;2023-09-19T07:32:00;14.40;99.90
53264;DHT22;39153;52.680;6.172;2023-09-19T07:34:25;14.50;99.90
53264;DHT22;39153;52.680;6.172;2023-09-19T07:36:51;14.40;99.90
53264;DHT22;39153;52.680;6.172;2023-09-19T07:39:17;14.60;99.90
53264;DHT22;39153;52.680;6.172;2023-09-19T07:41:42;14.60;99.90
53264;DHT22;39153;52.680;6.172;2023-09-19T07:44:08;14.70;99.90
53264;DHT22;39153;52.680;6.172;2023-09-19T07:46:37;14.70;99.90
53264;DHT22;39153;52.680;6.172;2023-09-19T07:49:02;14.80;99.90
53264;DHT22;39153;52.680;6.172;2023-09-19T07:51:28;14.70;99.90
53264;DHT22;39153;52.680;6.172;2023-09-19T07:53:54;14.80;99.90
53264;DHT22;39153;52.680;6.172;2023-09-19T07:56:20;14.80;99.90
53264;DHT22;39153;52.680;6.172;2023-09-19T07:58:46;14.90;99.90
53264;DHT22;39153;52.680;6.172;2023-09-19T08:01:12;14.90;99.90
53264;DHT22;39153;52.680;6.172;2023-09-19T08:03:39;14.90;99.90
53264;DHT22;39153;52.680;6.172;2023-09-19T08:06:07;15.10;99.90
53264;DHT22;39153;52.680;6.172;2023-09-19T08:08:33;15.10;99.90
53264;DHT22;39153;52.680;6.172;2023-09-19T08:11:08;15.00;99.90
53264;DHT22;39153;52.680;6.172;2023-09-19T08:13:40;15.10;99.90
53264;DHT22;39153;52.680;6.172;2023-09-19T08:16:10;15.20;99.90
53264;DHT22;39153;52.680;6.172;2023-09-19T08:18:36;15.20;99.90
53264;DHT22;39153;52.680;6.172;2023-09-19T08:21:05;15.20;99.90
53264;DHT22;39153;52.680;6.172;2023-09-19T08:23:37;15.20;99.90
53264;DHT22;39153;52.680;6.172;2023-09-19T08:26:04;15.30;99.90
53264;DHT22;39153;52.680;6.172;2023-09-19T08:28:36;15.30;99.90
53264;DHT22;39153;52.680;6.172;2023-09-19T08:31:05;15.40;99.90
53264;DHT22;39153;52.680;6.172;2023-09-19T08:33:35;15.40;99.90
53264;DHT22;39153;52.680;6.172;2023-09-19T08:36:02;15.40;99.90
53264;DHT22;39153;52.680;6.172;2023-09-19T08:38:34;15.60;99.90
53264;DHT22;39153;52.680;6.172;2023-09-19T08:41:05;15.60;99.90
53264;DHT22;39153;52.680;6.172;2023-09-19T08:43:30;15.60;99.90
53264;DHT22;39153;52.680;6.172;2023-09-19T08:46:20;15.60;99.90
53264;DHT22;39153;52.680;6.172;2023-09-19T08:49:06;15.70;99.90
53264;DHT22;39153;52.680;6.172;2023-09-19T08:51:42;15.80;99.90
53264;DHT22;39153;52.680;6.172;2023-09-19T08:54:24;16.00;99.90
53264;DHT22;39153;52.680;6.172;2023-09-19T08:56:54;16.10;99.90
53264;DHT22;39153;52.680;6.172;2023-09-19T08:59:23;16.30;99.90
53264;DHT22;39153;52.680;6.172;2023-09-19T09:01:55;16.40;99.90
53264;DHT22;39153;52.680;6.172;2023-09-19T09:04:22;16.40;99.90
53264;DHT22;39153;52.680;6.172;2023-09-19T09:06:50;16.60;99.90
53264;DHT22;39153;52.680;6.172;2023-09-19T09:09:19;16.70;99.90
53264;DHT22;39153;52.680;6.172;2023-09-19T09:11:45;16.80;99.90
53264;DHT22;39153;52.680;6.172;2023-09-19T09:14:13;16.90;99.90
53264;DHT22;39153;52.680;6.172;2023-09-19T09:16:39;17.00;99.90
53264;DHT22;39153;52.680;6.172;2023-09-19T09:19:05;17.10;99.90
53264;DHT22;39153;52.680;6.172;2023-09-19T09:21:31;17.10;99.90
53264;DHT22;39153;52.680;6.172;2023-09-19T09:24:30;17.20;99.90
53264;DHT22;39153;52.680;6.172;2023-09-19T09:26:59;17.20;99.90
53264;DHT22;39153;52.680;6.172;2023-09-19T09:29:44;17.20;99.90
53264;DHT22;39153;52.680;6.172;2023-09-19T09:32:26;17.20;99.90
53264;DHT22;39153;52.680;6.172;2023-09-19T09:34:56;17.30;99.90
53264;DHT22;39153;52.680;6.172;2023-09-19T09:37:23;17.70;99.90
53264;DHT22;39153;52.680;6.172;2023-09-19T09:42:34;17.20;99.90
53264;DHT22;39153;52.680;6.172;2023-09-19T09:45:20;17.20;99.90
53264;DHT22;39153;52.680;6.172;2023-09-19T09:48:01;17.30;99.90
53264;DHT22;39153;52.680;6.172;2023-09-19T09:50:46;17.30;99.90
53264;DHT22;39153;52.680;6.172;2023-09-19T09:53:26;17.40;99.90
53264;DHT22;39153;52.680;6.172;2023-09-19T09:58:28;17.30;99.90
53264;DHT22;39153;52.680;6.172;2023-09-19T10:01:04;17.40;99.90
53264;DHT22;39153;52.680;6.172;2023-09-19T10:03:40;17.50;99.90
53264;DHT22;39153;52.680;6.172;2023-09-19T10:06:13;17.50;99.90
53264;DHT22;39153;52.680;6.172;2023-09-19T10:11:44;17.50;99.90
53264;DHT22;39153;52.680;6.172;2023-09-19T10:14:15;17.40;99.90
53264;DHT22;39153;52.680;6.172;2023-09-19T10:16:48;17.40;99.90
53264;DHT22;39153;52.680;6.172;2023-09-19T10:19:42;17.40;99.90
53264;DHT22;39153;52.680;6.172;2023-09-19T10:22:12;17.50;99.90
53264;DHT22;39153;52.680;6.172;2023-09-19T10:24:40;17.60;99.90
53264;DHT22;39153;52.680;6.172;2023-09-19T10:27:07;17.80;99.90
53264;DHT22;39153;52.680;6.172;2023-09-19T10:29:36;17.90;99.90
53264;DHT22;39153;52.680;6.172;2023-09-19T10:32:05;17.90;99.90
53264;DHT22;39153;52.680;6.172;2023-09-19T10:34:41;17.90;99.90
53264;DHT22;39153;52.680;6.172;2023-09-19T10:37:09;18.00;99.90
53264;DHT22;39153;52.680;6.172;2023-09-19T10:39:39;18.10;99.90
53264;DHT22;39153;52.680;6.172;2023-09-19T10:42:06;18.00;99.90
53264;DHT22;39153;52.680;6.172;2023-09-19T10:44:38;18.00;99.90
53264;DHT22;39153;52.680;6.172;2023-09-19T10:47:08;17.80;99.90
53264;DHT22;39153;52.680;6.172;2023-09-19T10:49:34;17.80;99.90
53264;DHT22;39153;52.680;6.172;2023-09-19T10:52:01;17.80;99.90
53264;DHT22;39153;52.680;6.172;2023-09-19T10:54:31;17.80;99.90
53264;DHT22;39153;52.680;6.172;2023-09-19T10:57:00;17.90;99.90
53264;DHT22;39153;52.680;6.172;2023-09-19T10:59:26;18.00;99.90
53264;DHT22;39153;52.680;6.172;2023-09-19T11:02:16;18.10;99.90
53264;DHT22;39153;52.680;6.172;2023-09-19T11:04:42;18.20;99.90
53264;DHT22;39153;52.680;6.172;2023-09-19T11:07:14;18.30;99.90
53264;DHT22;39153;52.680;6.172;2023-09-19T11:09:50;18.40;99.90
53264;DHT22;39153;52.680;6.172;2023-09-19T11:15:03;18.60;99.90
53264;DHT22;39153;52.680;6.172;2023-09-19T11:17:40;18.70;99.90
53264;DHT22;39153;52.680;6.172;2023-09-19T11:30:36;18.70;99.90
53264;DHT22;39153;52.680;6.172;2023-09-19T11:33:19;18.70;99.90
53264;DHT22;39153;52.680;6.172;2023-09-19T11:43:48;18.60;99.90
53264;DHT22;39153;52.680;6.172;2023-09-19T11:46:16;18.50;99.90
53264;DHT22;39153;52.680;6.172;2023-09-19T11:48:48;18.70;99.90
53264;DHT22;39153;52.680;6.172;2023-09-19T11:53:46;18.80;99.90
53264;DHT22;39153;52.680;6.172;2023-09-19T11:56:19;18.80;99.90
53264;DHT22;39153;52.680;6.172;2023-09-19T11:58:46;18.80;99.90
53264;DHT22;39153;52.680;6.172;2023-09-19T12:01:18;18.80;99.90
53264;DHT22;39153;52.680;6.172;2023-09-19T12:03:47;18.80;99.90
53264;DHT22;39153;52.680;6.172;2023-09-19T12:06:17;18.70;99.90
53264;DHT22;39153;52.680;6.172;2023-09-19T12:08:43;18.80;99.90
53264;DHT22;39153;52.680;6.172;2023-09-19T12:11:13;18.70;99.90
53264;DHT22;39153;52.680;6.172;2023-09-19T12:13:47;18.60;99.90
53264;DHT22;39153;52.680;6.172;2023-09-19T12:16:21;18.60;99.90
53264;DHT22;39153;52.680;6.172;2023-09-19T12:18:48;18.60;99.90
53264;DHT22;39153;52.680;6.172;2023-09-19T12:21:29;18.80;99.90
53264;DHT22;39153;52.680;6.172;2023-09-19T12:26:45;19.80;99.90
53264;DHT22;39153;52.680;6.172;2023-09-19T12:29:17;19.90;99.90
53264;DHT22;39153;52.680;6.172;2023-09-19T12:31:58;19.90;99.90
53264;DHT22;39153;52.680;6.172;2023-09-19T12:34:26;19.80;99.90
53264;DHT22;39153;52.680;6.172;2023-09-19T12:37:09;19.70;99.90
53264;DHT22;39153;52.680;6.172;2023-09-19T12:39:44;19.60;99.90
53264;DHT22;39153;52.680;6.172;2023-09-19T12:42:23;19.60;99.90
53264;DHT22;39153;52.680;6.172;2023-09-19T12:44:51;19.50;99.90
53264;DHT22;39153;52.680;6.172;2023-09-19T12:47:22;19.40;99.90
53264;DHT22;39153;52.680;6.172;2023-09-19T12:52:47;19.20;99.90
53264;DHT22;39153;52.680;6.172;2023-09-19T12:55:28;19.10;99.90
53264;DHT22;39153;52.680;6.172;2023-09-19T13:00:41;18.90;99.90
53264;DHT22;39153;52.680;6.172;2023-09-19T13:05:55;18.70;99.90
53264;DHT22;39153;52.680;6.172;2023-09-19T13:08:30;18.60;99.90
53264;DHT22;39153;52.680;6.172;2023-09-19T13:11:15;18.60;99.90
53264;DHT22;39153;52.680;6.172;2023-09-19T13:13:43;18.60;99.90
53264;DHT22;39153;52.680;6.172;2023-09-19T13:16:20;18.60;99.90
53264;DHT22;39153;52.680;6.172;2023-09-19T13:18:57;18.50;99.90
53264;DHT22;39153;52.680;6.172;2023-09-19T13:21:31;18.50;99.90
53264;DHT22;39153;52.680;6.172;2023-09-19T13:24:22;18.50;99.90
53264;DHT22;39153;52.680;6.172;2023-09-19T13:26:48;18.50;99.90
53264;DHT22;39153;52.680;6.172;2023-09-19T13:29:15;18.50;99.90
53264;DHT22;39153;52.680;6.172;2023-09-19T13:31:47;18.60;99.90
53264;DHT22;39153;52.680;6.172;2023-09-19T13:34:13;18.60;99.90
53264;DHT22;39153;52.680;6.172;2023-09-19T13:36:41;18.60;99.90
53264;DHT22;39153;52.680;6.172;2023-09-19T13:39:08;18.60;99.90
53264;DHT22;39153;52.680;6.172;2023-09-19T13:41:35;18.60;99.90
53264;DHT22;39153;52.680;6.172;2023-09-19T13:44:05;18.60;99.90
53264;DHT22;39153;52.680;6.172;2023-09-19T13:46:31;18.70;99.90
53264;DHT22;39153;52.680;6.172;2023-09-19T13:48:59;18.80;99.90
53264;DHT22;39153;52.680;6.172;2023-09-19T13:51:31;18.90;99.90
53264;DHT22;39153;52.680;6.172;2023-09-19T13:53:58;18.90;99.90
53264;DHT22;39153;52.680;6.172;2023-09-19T13:56:25;19.00;99.90
53264;DHT22;39153;52.680;6.172;2023-09-19T13:58:54;19.10;99.90
53264;DHT22;39153;52.680;6.172;2023-09-19T14:01:20;19.20;99.90
53264;DHT22;39153;52.680;6.172;2023-09-19T14:03:45;19.20;99.90
53264;DHT22;39153;52.680;6.172;2023-09-19T14:06:17;19.20;99.90
53264;DHT22;39153;52.680;6.172;2023-09-19T14:08:46;19.10;99.90
53264;DHT22;39153;52.680;6.172;2023-09-19T14:11:13;19.10;99.90
53264;DHT22;39153;52.680;6.172;2023-09-19T14:13:39;19.00;99.90
53264;DHT22;39153;52.680;6.172;2023-09-19T14:16:06;18.90;99.90
53264;DHT22;39153;52.680;6.172;2023-09-19T14:18:34;18.90;99.90
53264;DHT22;39153;52.680;6.172;2023-09-19T14:21:06;19.60;99.90
53264;DHT22;39153;52.680;6.172;2023-09-19T14:23:39;18.70;99.90
53264;DHT22;39153;52.680;6.172;2023-09-19T14:26:07;18.80;99.90
53264;DHT22;39153;52.680;6.172;2023-09-19T14:28:33;18.60;99.90
53264;DHT22;39153;52.680;6.172;2023-09-19T14:31:09;18.60;99.90
53264;DHT22;39153;52.680;6.172;2023-09-19T14:33:36;18.60;99.90
53264;DHT22;39153;52.680;6.172;2023-09-19T14:36:06;18.60;99.90
53264;DHT22;39153;52.680;6.172;2023-09-19T14:38:33;18.60;99.90
53264;DHT22;39153;52.680;6.172;2023-09-19T14:41:03;18.60;99.90
53264;DHT22;39153;52.680;6.172;2023-09-19T14:43:30;18.60;99.90
53264;DHT22;39153;52.680;6.172;2023-09-19T14:45:56;18.60;99.90
53264;DHT22;39153;52.680;6.172;2023-09-19T14:48:24;18.60;99.90
53264;DHT22;39153;52.680;6.172;2023-09-19T14:50:52;18.60;99.90
53264;DHT22;39153;52.680;6.172;2023-09-19T14:53:18;18.60;99.90
53264;DHT22;39153;52.680;6.172;2023-09-19T14:55:44;18.60;99.90
53264;DHT22;39153;52.680;6.172;2023-09-19T14:58:11;18.60;99.90
53264;DHT22;39153;52.680;6.172;2023-09-19T15:00:37;18.60;99.90
53264;DHT22;39153;52.680;6.172;2023-09-19T15:03:04;18.70;99.90
53264;DHT22;39153;52.680;6.172;2023-09-19T15:05:29;18.60;99.90
53264;DHT22;39153;52.680;6.172;2023-09-19T15:07:56;18.60;99.90
53264;DHT22;39153;52.680;6.172;2023-09-19T15:10:23;18.50;99.90
53264;DHT22;39153;52.680;6.172;2023-09-19T15:12:49;18.50;99.90
53264;DHT22;39153;52.680;6.172;2023-09-19T15:15:14;18.50;99.90
53264;DHT22;39153;52.680;6.172;2023-09-19T15:17:40;18.50;99.90
53264;DHT22;39153;52.680;6.172;2023-09-19T15:20:07;18.40;99.90
53264;DHT22;39153;52.680;6.172;2023-09-19T15:22:36;18.40;99.90
53264;DHT22;39153;52.680;6.172;2023-09-19T15:25:02;18.50;99.90
53264;DHT22;39153;52.680;6.172;2023-09-19T15:27:29;18.40;99.90
53264;DHT22;39153;52.680;6.172;2023-09-19T15:29:57;18.40;99.90
53264;DHT22;39153;52.680;6.172;2023-09-19T15:32:24;18.40;99.90
53264;DHT22;39153;52.680;6.172;2023-09-19T15:34:50;18.40;99.90
53264;DHT22;39153;52.680;6.172;2023-09-19T15:37:15;18.40;99.90
53264;DHT22;39153;52.680;6.172;2023-09-19T15:39:41;18.40;99.90
53264;DHT22;39153;52.680;6.172;2023-09-19T15:42:07;18.40;99.90
53264;DHT22;39153;52.680;6.172;2023-09-19T15:44:33;18.30;99.90
53264;DHT22;39153;52.680;6.172;2023-09-19T15:46:59;18.30;99.90
53264;DHT22;39153;52.680;6.172;2023-09-19T15:49:25;18.30;99.90
53264;DHT22;39153;52.680;6.172;2023-09-19T15:51:50;18.30;99.90
53264;DHT22;39153;52.680;6.172;2023-09-19T15:54:16;18.20;99.90
53264;DHT22;39153;52.680;6.172;2023-09-19T15:56:44;18.10;99.90
53264;DHT22;39153;52.680;6.172;2023-09-19T15:59:10;18.00;99.90
53264;DHT22;39153;52.680;6.172;2023-09-19T16:01:41;17.90;99.90
53264;DHT22;39153;52.680;6.172;2023-09-19T16:04:08;17.80;99.90
53264;DHT22;39153;52.680;6.172;2023-09-19T16:06:35;17.80;99.90
53264;DHT22;39153;52.680;6.172;2023-09-19T16:09:01;17.70;99.90
53264;DHT22;39153;52.680;6.172;2023-09-19T16:11:31;17.70;99.90
53264;DHT22;39153;52.680;6.172;2023-09-19T16:13:57;17.50;99.90
53264;DHT22;39153;52.680;6.172;2023-09-19T16:16:26;17.50;99.90
53264;DHT22;39153;52.680;6.172;2023-09-19T16:19:02;17.40;99.90
53264;DHT22;39153;52.680;6.172;2023-09-19T16:21:31;17.40;99.90
53264;DHT22;39153;52.680;6.172;2023-09-19T16:23:58;17.40;99.90
53264;DHT22;39153;52.680;6.172;2023-09-19T16:26:24;17.40;99.90
53264;DHT22;39153;52.680;6.172;2023-09-19T16:28:52;17.40;99.90
53264;DHT22;39153;52.680;6.172;2023-09-19T16:31:18;17.40;99.90
53264;DHT22;39153;52.680;6.172;2023-09-19T16:33:46;17.50;99.90